sensor_id;sensor_type;location;lat;lon;timestamp;temperature;humidity
63899;HTU21D;50070;-32.946;-60.652;2023-04-15T00:00:10;19.68;52.15
63899;HTU21D;50070;-32.946;-60.652;2023-04-15T00:02:37;19.79;51.77
63899;HTU21D;50070;-32.946;-60.652;2023-04-15T00:05:04;19.80;51.38
63899;HTU21D;50070;-32.946;-60.652;2023-04-15T00:07:31;19.84;50.50
63899;HTU21D;50070;-32.946;-60.652;2023-04-15T00:09:58;19.81;50.66
63899;HTU21D;50070;-32.946;-60.652;2023-04-15T00:12:26;19.87;49.86
63899;HTU21D;50070;-32.946;-60.652;2023-04-15T00:14:53;19.71;50.03
63899;HTU21D;50070;-32.946;-60.652;2023-04-15T00:17:22;19.80;49.75
63899;HTU21D;50070;-32.946;-60.652;2023-04-15T00:19:49;19.71;49.80
63899;HTU21D;50070;-32.946;-60.652;2023-04-15T00:22:15;19.55;50.82
63899;HTU21D;50070;-32.946;-60.652;2023-04-15T00:24:43;19.75;50.05
63899;HTU21D;50070;-32.946;-60.652;2023-04-15T00:27:10;19.77;49.69
63899;HTU21D;50070;-32.946;-60.652;2023-04-15T00:29:36;19.86;49.92
63899;HTU21D;50070;-32.946;-60.652;2023-04-15T00:32:03;19.65;50.42
63899;HTU21D;50070;-32.946;-60.652;2023-04-15T00:34:30;19.75;50.47
63899;HTU21D;50070;-32.946;-60.652;2023-04-15T00:36:56;19.72;50.97
63899;HTU21D;50070;-32.946;-60.652;2023-04-15T00:39:23;19.69;50.72
63899;HTU21D;50070;-32.946;-60.652;2023-04-15T00:41:50;19.82;50.32
63899;HTU21D;50070;-32.946;-60.652;2023-04-15T00:44:17;19.97;50.54
63899;HTU21D;50070;-32.946;-60.652;2023-04-15T00:46:44;19.84;50.76
63899;HTU21D;50070;-32.946;-60.652;2023-04-15T00:49:12;19.91;50.65
63899;HTU21D;50070;-32.946;-60.652;2023-04-15T00:51:39;19.85;50.30
63899;HTU21D;50070;-32.946;-60.652;2023-04-15T00:54:06;19.79;50.58
63899;HTU21D;50070;-32.946;-60.652;2023-04-15T00:56:37;19.88;49.82
63899;HTU21D;50070;-32.946;-60.652;2023-04-15T00:59:05;19.65;50.02
63899;HTU21D;50070;-32.946;-60.652;2023-04-15T01:01:34;19.65;50.07
63899;HTU21D;50070;-32.946;-60.652;2023-04-15T01:04:01;19.79;49.33
63899;HTU21D;50070;-32.946;-60.652;2023-04-15T01:06:29;19.82;49.19
63899;HTU21D;50070;-32.946;-60.652;2023-04-15T01:08:58;19.73;48.79
63899;HTU21D;50070;-32.946;-60.652;2023-04-15T01:11:25;19.80;48.56
63899;HTU21D;50070;-32.946;-60.652;2023-04-15T01:13:52;19.66;48.21
63899;HTU21D;50070;-32.946;-60.652;2023-04-15T01:16:20;19.60;48.31
63899;HTU21D;50070;-32.946;-60.652;2023-04-15T01:18:48;19.66;48.64
63899;HTU21D;50070;-32.946;-60.652;2023-04-15T01:21:15;19.41;49.78
63899;HTU21D;50070;-32.946;-60.652;2023-04-15T01:23:44;19.51;48.87
63899;HTU21D;50070;-32.946;-60.652;2023-04-15T01:26:12;19.61;47.99
63899;HTU21D;50070;-32.946;-60.652;2023-04-15T01:28:39;19.53;48.26
63899;HTU21D;50070;-32.946;-60.652;2023-04-15T01:31:11;19.46;48.73
63899;HTU21D;50070;-32.946;-60.652;2023-04-15T01:33:40;19.57;48.61
63899;HTU21D;50070;-32.946;-60.652;2023-04-15T01:36:08;19.43;49.28
63899;HTU21D;50070;-32.946;-60.652;2023-04-15T01:38:39;19.58;49.18
63899;HTU21D;50070;-32.946;-60.652;2023-04-15T01:41:06;19.67;49.07
63899;HTU21D;50070;-32.946;-60.652;2023-04-15T01:43:34;19.52;49.68
63899;HTU21D;50070;-32.946;-60.652;2023-04-15T01:46:02;19.60;49.69
63899;HTU21D;50070;-32.946;-60.652;2023-04-15T01:48:29;19.53;50.42
63899;HTU21D;50070;-32.946;-60.652;2023-04-15T01:50:56;19.48;50.81
63899;HTU21D;50070;-32.946;-60.652;2023-04-15T01:53:26;19.31;51.51
63899;HTU21D;50070;-32.946;-60.652;2023-04-15T01:55:53;19.58;50.60
63899;HTU21D;50070;-32.946;-60.652;2023-04-15T01:58:20;19.35;51.67
63899;HTU21D;50070;-32.946;-60.652;2023-04-15T02:00:47;19.26;52.06
63899;HTU21D;50070;-32.946;-60.652;2023-04-15T02:03:14;19.50;50.98
63899;HTU21D;50070;-32.946;-60.652;2023-04-15T02:05:41;19.42;50.82
63899;HTU21D;50070;-32.946;-60.652;2023-04-15T02:08:08;19.27;51.24
63899;HTU21D;50070;-32.946;-60.652;2023-04-15T02:10:35;19.43;50.73
63899;HTU21D;50070;-32.946;-60.652;2023-04-15T02:13:02;19.22;51.62
63899;HTU21D;50070;-32.946;-60.652;2023-04-15T02:15:29;19.29;51.17
63899;HTU21D;50070;-32.946;-60.652;2023-04-15T02:17:55;19.07;52.41
63899;HTU21D;50070;-32.946;-60.652;2023-04-15T02:20:22;19.09;52.38
63899;HTU21D;50070;-32.946;-60.652;2023-04-15T02:22:49;19.08;52.58
63899;HTU21D;50070;-32.946;-60.652;2023-04-15T02:25:17;19.16;52.49
63899;HTU21D;50070;-32.946;-60.652;2023-04-15T02:27:44;18.98;53.35
63899;HTU21D;50070;-32.946;-60.652;2023-04-15T02:30:10;19.05;53.59
63899;HTU21D;50070;-32.946;-60.652;2023-04-15T02:32:38;19.11;53.53
63899;HTU21D;50070;-32.946;-60.652;2023-04-15T02:35:07;18.89;54.61
63899;HTU21D;50070;-32.946;-60.652;2023-04-15T02:37:36;19.07;55.19
63899;HTU21D;50070;-32.946;-60.652;2023-04-15T02:40:09;18.87;58.41
63899;HTU21D;50070;-32.946;-60.652;2023-04-15T02:42:39;19.00;57.24
63899;HTU21D;50070;-32.946;-60.652;2023-04-15T02:45:07;18.79;58.70
63899;HTU21D;50070;-32.946;-60.652;2023-04-15T02:47:34;18.66;58.50
63899;HTU21D;50070;-32.946;-60.652;2023-04-15T02:50:06;18.92;58.07
63899;HTU21D;50070;-32.946;-60.652;2023-04-15T02:52:34;18.85;58.61
63899;HTU21D;50070;-32.946;-60.652;2023-04-15T02:55:00;18.41;59.61
63899;HTU21D;50070;-32.946;-60.652;2023-04-15T02:57:27;18.53;59.33
63899;HTU21D;50070;-32.946;-60.652;2023-04-15T02:59:54;18.59;59.13
63899;HTU21D;50070;-32.946;-60.652;2023-04-15T03:02:21;18.51;60.22
63899;HTU21D;50070;-32.946;-60.652;2023-04-15T03:04:48;18.54;60.07
63899;HTU21D;50070;-32.946;-60.652;2023-04-15T03:07:16;18.59;59.83
63899;HTU21D;50070;-32.946;-60.652;2023-04-15T03:09:43;18.30;60.70
63899;HTU21D;50070;-32.946;-60.652;2023-04-15T03:12:09;18.44;60.67
63899;HTU21D;50070;-32.946;-60.652;2023-04-15T03:14:36;18.41;60.86
63899;HTU21D;50070;-32.946;-60.652;2023-04-15T03:17:03;18.57;60.35
63899;HTU21D;50070;-32.946;-60.652;2023-04-15T03:19:30;18.47;60.86
63899;HTU21D;50070;-32.946;-60.652;2023-04-15T03:21:56;18.44;61.00
63899;HTU21D;50070;-32.946;-60.652;2023-04-15T03:24:23;18.32;60.88
63899;HTU21D;50070;-32.946;-60.652;2023-04-15T03:26:50;18.29;60.56
63899;HTU21D;50070;-32.946;-60.652;2023-04-15T03:29:17;18.20;61.47
63899;HTU21D;50070;-32.946;-60.652;2023-04-15T03:31:43;18.25;66.17
63899;HTU21D;50070;-32.946;-60.652;2023-04-15T03:34:10;18.04;69.61
63899;HTU21D;50070;-32.946;-60.652;2023-04-15T03:36:37;17.92;70.58
63899;HTU21D;50070;-32.946;-60.652;2023-04-15T03:39:05;17.96;70.97
63899;HTU21D;50070;-32.946;-60.652;2023-04-15T03:41:31;17.59;70.37
63899;HTU21D;50070;-32.946;-60.652;2023-04-15T03:43:58;17.48;71.70
63899;HTU21D;50070;-32.946;-60.652;2023-04-15T03:46:25;17.53;70.47
63899;HTU21D;50070;-32.946;-60.652;2023-04-15T03:48:52;17.46;73.06
63899;HTU21D;50070;-32.946;-60.652;2023-04-15T03:51:18;17.50;71.26
63899;HTU21D;50070;-32.946;-60.652;2023-04-15T03:53:45;17.55;70.83
63899;HTU21D;50070;-32.946;-60.652;2023-04-15T03:56:12;17.55;69.39
63899;HTU21D;50070;-32.946;-60.652;2023-04-15T03:58:39;17.50;71.56
63899;HTU21D;50070;-32.946;-60.652;2023-04-15T04:01:05;17.59;71.33
63899;HTU21D;50070;-32.946;-60.652;2023-04-15T04:03:33;17.68;68.92
63899;HTU21D;50070;-32.946;-60.652;2023-04-15T04:06:00;17.56;70.15
63899;HTU21D;50070;-32.946;-60.652;2023-04-15T04:08:27;17.53;70.55
63899;HTU21D;50070;-32.946;-60.652;2023-04-15T04:10:53;17.45;71.67
63899;HTU21D;50070;-32.946;-60.652;2023-04-15T04:13:20;17.51;70.66
63899;HTU21D;50070;-32.946;-60.652;2023-04-15T04:15:47;17.23;72.18
63899;HTU21D;50070;-32.946;-60.652;2023-04-15T04:18:13;17.39;70.62
63899;HTU21D;50070;-32.946;-60.652;2023-04-15T04:20:40;17.47;70.14
63899;HTU21D;50070;-32.946;-60.652;2023-04-15T04:23:07;17.39;70.46
63899;HTU21D;50070;-32.946;-60.652;2023-04-15T04:25:34;17.59;69.22
63899;HTU21D;50070;-32.946;-60.652;2023-04-15T04:28:01;17.46;71.32
63899;HTU21D;50070;-32.946;-60.652;2023-04-15T04:30:28;17.52;70.38
63899;HTU21D;50070;-32.946;-60.652;2023-04-15T04:32:55;17.37;70.53
63899;HTU21D;50070;-32.946;-60.652;2023-04-15T04:35:23;17.39;69.53
63899;HTU21D;50070;-32.946;-60.652;2023-04-15T04:37:50;17.29;71.41
63899;HTU21D;50070;-32.946;-60.652;2023-04-15T04:40:17;17.48;70.41
63899;HTU21D;50070;-32.946;-60.652;2023-04-15T04:42:44;17.53;70.51
63899;HTU21D;50070;-32.946;-60.652;2023-04-15T04:45:11;17.63;69.97
63899;HTU21D;50070;-32.946;-60.652;2023-04-15T04:47:38;17.37;70.05
63899;HTU21D;50070;-32.946;-60.652;2023-04-15T04:50:05;17.35;71.50
63899;HTU21D;50070;-32.946;-60.652;2023-04-15T04:52:32;17.51;70.39
63899;HTU21D;50070;-32.946;-60.652;2023-04-15T04:54:59;17.39;70.52
63899;HTU21D;50070;-32.946;-60.652;2023-04-15T04:57:26;17.35;71.09
63899;HTU21D;50070;-32.946;-60.652;2023-04-15T04:59:53;17.40;70.70
63899;HTU21D;50070;-32.946;-60.652;2023-04-15T05:02:19;17.32;71.42
63899;HTU21D;50070;-32.946;-60.652;2023-04-15T05:04:46;17.13;72.90
63899;HTU21D;50070;-32.946;-60.652;2023-04-15T05:07:15;17.21;72.19
63899;HTU21D;50070;-32.946;-60.652;2023-04-15T05:09:42;17.30;70.86
63899;HTU21D;50070;-32.946;-60.652;2023-04-15T05:12:08;17.32;70.23
63899;HTU21D;50070;-32.946;-60.652;2023-04-15T05:14:40;17.44;70.20
63899;HTU21D;50070;-32.946;-60.652;2023-04-15T05:17:07;17.63;69.41
63899;HTU21D;50070;-32.946;-60.652;2023-04-15T05:19:34;17.40;69.58
63899;HTU21D;50070;-32.946;-60.652;2023-04-15T05:22:01;17.50;69.26
63899;HTU21D;50070;-32.946;-60.652;2023-04-15T05:24:28;17.45;69.01
63899;HTU21D;50070;-32.946;-60.652;2023-04-15T05:26:55;17.33;70.55
63899;HTU21D;50070;-32.946;-60.652;2023-04-15T05:29:22;17.18;70.50
63899;HTU21D;50070;-32.946;-60.652;2023-04-15T05:31:48;17.39;69.86
63899;HTU21D;50070;-32.946;-60.652;2023-04-15T05:34:15;17.46;69.36
63899;HTU21D;50070;-32.946;-60.652;2023-04-15T05:36:42;17.49;70.13
63899;HTU21D;50070;-32.946;-60.652;2023-04-15T05:39:10;17.00;72.23
63899;HTU21D;50070;-32.946;-60.652;2023-04-15T05:41:37;16.89;72.93
63899;HTU21D;50070;-32.946;-60.652;2023-04-15T05:44:04;16.75;73.09
63899;HTU21D;50070;-32.946;-60.652;2023-04-15T05:46:30;16.59;74.03
63899;HTU21D;50070;-32.946;-60.652;2023-04-15T05:48:57;16.84;72.61
63899;HTU21D;50070;-32.946;-60.652;2023-04-15T05:51:24;16.88;72.92
63899;HTU21D;50070;-32.946;-60.652;2023-04-15T05:53:51;16.91;72.69
63899;HTU21D;50070;-32.946;-60.652;2023-04-15T05:56:18;16.76;73.38
63899;HTU21D;50070;-32.946;-60.652;2023-04-15T05:58:45;16.72;73.60
63899;HTU21D;50070;-32.946;-60.652;2023-04-15T06:01:12;16.80;73.09
63899;HTU21D;50070;-32.946;-60.652;2023-04-15T06:03:39;16.84;72.93
63899;HTU21D;50070;-32.946;-60.652;2023-04-15T06:06:06;17.10;71.66
63899;HTU21D;50070;-32.946;-60.652;2023-04-15T06:08:33;17.05;72.09
63899;HTU21D;50070;-32.946;-60.652;2023-04-15T06:11:00;16.86;73.38
63899;HTU21D;50070;-32.946;-60.652;2023-04-15T06:13:27;16.88;72.96
63899;HTU21D;50070;-32.946;-60.652;2023-04-15T06:15:54;17.03;72.47
63899;HTU21D;50070;-32.946;-60.652;2023-04-15T06:18:21;16.93;72.99
63899;HTU21D;50070;-32.946;-60.652;2023-04-15T06:20:48;17.01;72.86
63899;HTU21D;50070;-32.946;-60.652;2023-04-15T06:23:14;17.08;72.45
63899;HTU21D;50070;-32.946;-60.652;2023-04-15T06:25:41;17.26;71.98
63899;HTU21D;50070;-32.946;-60.652;2023-04-15T06:28:08;16.99;75.44
63899;HTU21D;50070;-32.946;-60.652;2023-04-15T06:30:35;17.06;75.91
63899;HTU21D;50070;-32.946;-60.652;2023-04-15T06:33:03;17.02;76.50
63899;HTU21D;50070;-32.946;-60.652;2023-04-15T06:35:33;16.67;78.03
63899;HTU21D;50070;-32.946;-60.652;2023-04-15T06:38:00;16.89;76.73
63899;HTU21D;50070;-32.946;-60.652;2023-04-15T06:40:26;17.14;75.92
63899;HTU21D;50070;-32.946;-60.652;2023-04-15T06:42:53;17.00;75.58
63899;HTU21D;50070;-32.946;-60.652;2023-04-15T06:45:20;17.01;75.21
63899;HTU21D;50070;-32.946;-60.652;2023-04-15T06:47:47;17.13;75.51
63899;HTU21D;50070;-32.946;-60.652;2023-04-15T06:50:13;16.92;76.57
63899;HTU21D;50070;-32.946;-60.652;2023-04-15T06:52:40;16.67;77.78
63899;HTU21D;50070;-32.946;-60.652;2023-04-15T06:55:07;16.78;76.21
63899;HTU21D;50070;-32.946;-60.652;2023-04-15T06:57:35;16.82;76.08
63899;HTU21D;50070;-32.946;-60.652;2023-04-15T07:00:02;16.98;75.40
63899;HTU21D;50070;-32.946;-60.652;2023-04-15T07:02:30;16.75;77.06
63899;HTU21D;50070;-32.946;-60.652;2023-04-15T07:04:57;16.77;76.26
63899;HTU21D;50070;-32.946;-60.652;2023-04-15T07:07:24;16.61;78.27
63899;HTU21D;50070;-32.946;-60.652;2023-04-15T07:09:51;16.54;77.84
63899;HTU21D;50070;-32.946;-60.652;2023-04-15T07:12:19;16.63;78.43
63899;HTU21D;50070;-32.946;-60.652;2023-04-15T07:14:46;16.50;77.92
63899;HTU21D;50070;-32.946;-60.652;2023-04-15T07:17:13;16.32;78.11
63899;HTU21D;50070;-32.946;-60.652;2023-04-15T07:19:39;16.70;76.04
63899;HTU21D;50070;-32.946;-60.652;2023-04-15T07:22:06;16.63;77.22
63899;HTU21D;50070;-32.946;-60.652;2023-04-15T07:24:33;16.42;79.26
63899;HTU21D;50070;-32.946;-60.652;2023-04-15T07:27:00;16.60;77.72
63899;HTU21D;50070;-32.946;-60.652;2023-04-15T07:29:27;16.66;77.15
63899;HTU21D;50070;-32.946;-60.652;2023-04-15T07:31:54;16.59;77.59
63899;HTU21D;50070;-32.946;-60.652;2023-04-15T07:34:22;16.66;76.95
63899;HTU21D;50070;-32.946;-60.652;2023-04-15T07:36:49;16.51;77.95
63899;HTU21D;50070;-32.946;-60.652;2023-04-15T07:39:20;16.47;78.29
63899;HTU21D;50070;-32.946;-60.652;2023-04-15T07:41:47;16.37;78.18
63899;HTU21D;50070;-32.946;-60.652;2023-04-15T07:44:14;16.43;78.40
63899;HTU21D;50070;-32.946;-60.652;2023-04-15T07:46:41;16.32;78.67
63899;HTU21D;50070;-32.946;-60.652;2023-04-15T07:49:07;16.31;79.16
63899;HTU21D;50070;-32.946;-60.652;2023-04-15T07:51:34;16.58;77.18
63899;HTU21D;50070;-32.946;-60.652;2023-04-15T07:54:02;16.57;77.32
63899;HTU21D;50070;-32.946;-60.652;2023-04-15T07:56:29;16.52;77.60
63899;HTU21D;50070;-32.946;-60.652;2023-04-15T07:58:56;16.67;76.14
63899;HTU21D;50070;-32.946;-60.652;2023-04-15T08:01:23;16.62;76.03
63899;HTU21D;50070;-32.946;-60.652;2023-04-15T08:03:50;16.37;77.89
63899;HTU21D;50070;-32.946;-60.652;2023-04-15T08:06:17;16.40;77.71
63899;HTU21D;50070;-32.946;-60.652;2023-04-15T08:08:44;16.58;77.12
63899;HTU21D;50070;-32.946;-60.652;2023-04-15T08:11:12;16.57;77.60
63899;HTU21D;50070;-32.946;-60.652;2023-04-15T08:13:39;16.51;77.55
63899;HTU21D;50070;-32.946;-60.652;2023-04-15T08:16:19;16.40;78.50
63899;HTU21D;50070;-32.946;-60.652;2023-04-15T08:18:47;16.16;79.29
63899;HTU21D;50070;-32.946;-60.652;2023-04-15T08:21:14;16.06;79.80
63899;HTU21D;50070;-32.946;-60.652;2023-04-15T08:23:42;16.44;78.14
63899;HTU21D;50070;-32.946;-60.652;2023-04-15T08:26:11;16.03;79.67
63899;HTU21D;50070;-32.946;-60.652;2023-04-15T08:28:39;16.10;79.52
63899;HTU21D;50070;-32.946;-60.652;2023-04-15T08:31:07;16.30;78.08
63899;HTU21D;50070;-32.946;-60.652;2023-04-15T08:33:34;16.19;78.45
63899;HTU21D;50070;-32.946;-60.652;2023-04-15T08:36:01;16.48;77.10
63899;HTU21D;50070;-32.946;-60.652;2023-04-15T08:38:28;16.30;78.03
63899;HTU21D;50070;-32.946;-60.652;2023-04-15T08:40:59;16.24;78.42
63899;HTU21D;50070;-32.946;-60.652;2023-04-15T08:43:35;16.11;79.36
63899;HTU21D;50070;-32.946;-60.652;2023-04-15T08:46:03;15.98;79.88
63899;HTU21D;50070;-32.946;-60.652;2023-04-15T08:48:32;15.87;80.29
63899;HTU21D;50070;-32.946;-60.652;2023-04-15T08:51:01;16.01;79.72
63899;HTU21D;50070;-32.946;-60.652;2023-04-15T08:53:29;16.25;78.52
63899;HTU21D;50070;-32.946;-60.652;2023-04-15T08:55:57;16.15;78.83
63899;HTU21D;50070;-32.946;-60.652;2023-04-15T08:58:25;15.98;79.77
63899;HTU21D;50070;-32.946;-60.652;2023-04-15T09:00:52;15.84;79.82
63899;HTU21D;50070;-32.946;-60.652;2023-04-15T09:03:19;15.91;79.85
63899;HTU21D;50070;-32.946;-60.652;2023-04-15T09:05:49;15.85;79.57
63899;HTU21D;50070;-32.946;-60.652;2023-04-15T09:08:17;15.89;79.05
63899;HTU21D;50070;-32.946;-60.652;2023-04-15T09:10:43;16.05;78.32
63899;HTU21D;50070;-32.946;-60.652;2023-04-15T09:13:11;16.19;77.84
63899;HTU21D;50070;-32.946;-60.652;2023-04-15T09:15:38;16.28;77.21
63899;HTU21D;50070;-32.946;-60.652;2023-04-15T09:18:05;16.49;76.14
63899;HTU21D;50070;-32.946;-60.652;2023-04-15T09:20:40;15.93;78.98
63899;HTU21D;50070;-32.946;-60.652;2023-04-15T09:23:14;16.17;77.98
63899;HTU21D;50070;-32.946;-60.652;2023-04-15T09:25:42;16.25;77.69
63899;HTU21D;50070;-32.946;-60.652;2023-04-15T09:28:09;16.17;78.27
63899;HTU21D;50070;-32.946;-60.652;2023-04-15T09:30:37;16.27;77.95
63899;HTU21D;50070;-32.946;-60.652;2023-04-15T09:33:04;16.06;78.72
63899;HTU21D;50070;-32.946;-60.652;2023-04-15T09:35:33;15.87;80.09
63899;HTU21D;50070;-32.946;-60.652;2023-04-15T09:38:07;15.88;79.75
63899;HTU21D;50070;-32.946;-60.652;2023-04-15T09:40:36;15.99;79.13
63899;HTU21D;50070;-32.946;-60.652;2023-04-15T09:43:04;15.97;79.46
63899;HTU21D;50070;-32.946;-60.652;2023-04-15T09:45:32;15.84;80.14
63899;HTU21D;50070;-32.946;-60.652;2023-04-15T09:48:17;16.00;79.55
63899;HTU21D;50070;-32.946;-60.652;2023-04-15T09:50:49;16.00;79.75
63899;HTU21D;50070;-32.946;-60.652;2023-04-15T09:53:20;16.26;78.73
63899;HTU21D;50070;-32.946;-60.652;2023-04-15T09:55:51;16.24;78.27
63899;HTU21D;50070;-32.946;-60.652;2023-04-15T09:58:24;16.26;78.12
63899;HTU21D;50070;-32.946;-60.652;2023-04-15T10:00:53;16.30;77.61
63899;HTU21D;50070;-32.946;-60.652;2023-04-15T10:03:23;16.44;76.95
63899;HTU21D;50070;-32.946;-60.652;2023-04-15T10:05:51;16.55;76.37
63899;HTU21D;50070;-32.946;-60.652;2023-04-15T10:08:20;16.48;76.70
63899;HTU21D;50070;-32.946;-60.652;2023-04-15T10:10:48;16.63;76.04
63899;HTU21D;50070;-32.946;-60.652;2023-04-15T10:13:24;16.51;76.64
63899;HTU21D;50070;-32.946;-60.652;2023-04-15T10:16:00;16.59;76.52
63899;HTU21D;50070;-32.946;-60.652;2023-04-15T10:18:33;16.48;76.89
63899;HTU21D;50070;-32.946;-60.652;2023-04-15T10:21:00;16.54;76.73
63899;HTU21D;50070;-32.946;-60.652;2023-04-15T10:23:27;16.11;78.56
63899;HTU21D;50070;-32.946;-60.652;2023-04-15T10:25:55;16.15;78.27
63899;HTU21D;50070;-32.946;-60.652;2023-04-15T10:28:22;16.24;78.31
63899;HTU21D;50070;-32.946;-60.652;2023-04-15T10:30:50;16.29;77.82
63899;HTU21D;50070;-32.946;-60.652;2023-04-15T10:33:23;16.33;77.35
63899;HTU21D;50070;-32.946;-60.652;2023-04-15T10:35:51;16.43;77.01
63899;HTU21D;50070;-32.946;-60.652;2023-04-15T10:41:24;16.41;77.27
63899;HTU21D;50070;-32.946;-60.652;2023-04-15T10:44:01;16.40;77.15
63899;HTU21D;50070;-32.946;-60.652;2023-04-15T10:46:44;16.31;77.28
63899;HTU21D;50070;-32.946;-60.652;2023-04-15T10:49:14;16.22;77.46
63899;HTU21D;50070;-32.946;-60.652;2023-04-15T10:51:44;16.30;77.34
63899;HTU21D;50070;-32.946;-60.652;2023-04-15T10:54:32;16.33;77.46
63899;HTU21D;50070;-32.946;-60.652;2023-04-15T11:02:16;16.43;77.34
63899;HTU21D;50070;-32.946;-60.652;2023-04-15T11:12:47;16.36;76.91
63899;HTU21D;50070;-32.946;-60.652;2023-04-15T11:15:31;16.33;76.99
63899;HTU21D;50070;-32.946;-60.652;2023-04-15T11:18:09;16.27;77.40
63899;HTU21D;50070;-32.946;-60.652;2023-04-15T11:20:42;16.25;77.66
63899;HTU21D;50070;-32.946;-60.652;2023-04-15T11:23:19;16.20;77.90
63899;HTU21D;50070;-32.946;-60.652;2023-04-15T11:25:54;16.29;77.37
63899;HTU21D;50070;-32.946;-60.652;2023-04-15T11:28:28;16.48;76.49
63899;HTU21D;50070;-32.946;-60.652;2023-04-15T11:30:56;16.16;78.16
63899;HTU21D;50070;-32.946;-60.652;2023-04-15T11:33:24;16.41;77.21
63899;HTU21D;50070;-32.946;-60.652;2023-04-15T11:35:53;16.37;76.81
63899;HTU21D;50070;-32.946;-60.652;2023-04-15T11:38:20;16.46;76.41
63899;HTU21D;50070;-32.946;-60.652;2023-04-15T11:40:48;16.45;76.71
63899;HTU21D;50070;-32.946;-60.652;2023-04-15T11:43:18;16.47;76.86
63899;HTU21D;50070;-32.946;-60.652;2023-04-15T11:48:16;16.54;76.44
63899;HTU21D;50070;-32.946;-60.652;2023-04-15T11:50:43;16.56;76.44
63899;HTU21D;50070;-32.946;-60.652;2023-04-15T11:53:12;16.43;76.88
63899;HTU21D;50070;-32.946;-60.652;2023-04-15T11:55:51;16.55;76.74
63899;HTU21D;50070;-32.946;-60.652;2023-04-15T11:58:21;16.66;76.28
63899;HTU21D;50070;-32.946;-60.652;2023-04-15T12:00:54;16.66;76.15
63899;HTU21D;50070;-32.946;-60.652;2023-04-15T12:03:23;16.67;76.41
63899;HTU21D;50070;-32.946;-60.652;2023-04-15T12:06:10;16.54;77.14
63899;HTU21D;50070;-32.946;-60.652;2023-04-15T12:16:41;16.51;77.44
63899;HTU21D;50070;-32.946;-60.652;2023-04-15T12:19:13;16.59;76.85
63899;HTU21D;50070;-32.946;-60.652;2023-04-15T12:21:43;16.44;77.62
63899;HTU21D;50070;-32.946;-60.652;2023-04-15T12:24:11;16.60;76.95
63899;HTU21D;50070;-32.946;-60.652;2023-04-15T12:26:44;16.60;76.55
63899;HTU21D;50070;-32.946;-60.652;2023-04-15T12:29:12;16.69;76.82
63899;HTU21D;50070;-32.946;-60.652;2023-04-15T12:31:53;16.82;76.31
63899;HTU21D;50070;-32.946;-60.652;2023-04-15T12:34:34;16.66;77.24
63899;HTU21D;50070;-32.946;-60.652;2023-04-15T12:37:03;16.64;77.38
63899;HTU21D;50070;-32.946;-60.652;2023-04-15T12:39:34;16.61;77.61
63899;HTU21D;50070;-32.946;-60.652;2023-04-15T12:42:02;16.74;76.88
63899;HTU21D;50070;-32.946;-60.652;2023-04-15T12:44:29;17.02;75.72
63899;HTU21D;50070;-32.946;-60.652;2023-04-15T12:46:56;16.70;77.41
63899;HTU21D;50070;-32.946;-60.652;2023-04-15T12:49:23;16.88;76.80
63899;HTU21D;50070;-32.946;-60.652;2023-04-15T12:51:52;16.87;76.95
63899;HTU21D;50070;-32.946;-60.652;2023-04-15T12:54:20;17.01;76.37
63899;HTU21D;50070;-32.946;-60.652;2023-04-15T12:56:48;17.15;75.47
63899;HTU21D;50070;-32.946;-60.652;2023-04-15T12:59:15;17.03;76.64
63899;HTU21D;50070;-32.946;-60.652;2023-04-15T13:01:46;17.05;76.27
63899;HTU21D;50070;-32.946;-60.652;2023-04-15T13:04:14;17.09;76.21
63899;HTU21D;50070;-32.946;-60.652;2023-04-15T13:06:41;17.21;75.57
63899;HTU21D;50070;-32.946;-60.652;2023-04-15T13:09:08;17.18;75.49
63899;HTU21D;50070;-32.946;-60.652;2023-04-15T13:11:35;17.26;74.51
63899;HTU21D;50070;-32.946;-60.652;2023-04-15T13:14:04;16.92;75.96
63899;HTU21D;50070;-32.946;-60.652;2023-04-15T13:16:31;17.23;75.38
63899;HTU21D;50070;-32.946;-60.652;2023-04-15T13:18:59;17.32;74.73
63899;HTU21D;50070;-32.946;-60.652;2023-04-15T13:21:26;17.36;74.28
63899;HTU21D;50070;-32.946;-60.652;2023-04-15T13:23:53;17.39;74.16
63899;HTU21D;50070;-32.946;-60.652;2023-04-15T13:26:20;17.50;74.13
63899;HTU21D;50070;-32.946;-60.652;2023-04-15T13:28:47;17.34;75.11
63899;HTU21D;50070;-32.946;-60.652;2023-04-15T13:31:14;17.32;75.65
63899;HTU21D;50070;-32.946;-60.652;2023-04-15T13:33:41;17.54;74.28
63899;HTU21D;50070;-32.946;-60.652;2023-04-15T13:36:08;17.72;73.61
63899;HTU21D;50070;-32.946;-60.652;2023-04-15T13:38:35;17.70;74.09
63899;HTU21D;50070;-32.946;-60.652;2023-04-15T13:41:01;17.88;73.28
63899;HTU21D;50070;-32.946;-60.652;2023-04-15T13:43:28;17.77;73.70
63899;HTU21D;50070;-32.946;-60.652;2023-04-15T13:45:55;17.81;73.61
63899;HTU21D;50070;-32.946;-60.652;2023-04-15T13:48:22;17.92;73.38
63899;HTU21D;50070;-32.946;-60.652;2023-04-15T13:50:49;17.94;73.12
63899;HTU21D;50070;-32.946;-60.652;2023-04-15T13:53:16;18.14;72.16
63899;HTU21D;50070;-32.946;-60.652;2023-04-15T13:55:43;18.18;72.54
63899;HTU21D;50070;-32.946;-60.652;2023-04-15T13:58:10;18.05;73.05
63899;HTU21D;50070;-32.946;-60.652;2023-04-15T14:00:37;17.92;73.07
63899;HTU21D;50070;-32.946;-60.652;2023-04-15T14:03:04;17.80;74.26
63899;HTU21D;50070;-32.946;-60.652;2023-04-15T14:05:31;18.07;73.18
63899;HTU21D;50070;-32.946;-60.652;2023-04-15T14:07:58;18.25;72.41
63899;HTU21D;50070;-32.946;-60.652;2023-04-15T14:10:25;18.00;73.64
63899;HTU21D;50070;-32.946;-60.652;2023-04-15T14:12:52;18.18;72.38
63899;HTU21D;50070;-32.946;-60.652;2023-04-15T14:15:20;18.00;73.06
63899;HTU21D;50070;-32.946;-60.652;2023-04-15T14:17:47;17.94;73.15
63899;HTU21D;50070;-32.946;-60.652;2023-04-15T14:20:15;18.07;72.67
63899;HTU21D;50070;-32.946;-60.652;2023-04-15T14:22:42;18.06;73.03
63899;HTU21D;50070;-32.946;-60.652;2023-04-15T14:25:09;18.04;72.60
63899;HTU21D;50070;-32.946;-60.652;2023-04-15T14:27:35;18.25;71.94
63899;HTU21D;50070;-32.946;-60.652;2023-04-15T14:30:02;18.28;71.64
63899;HTU21D;50070;-32.946;-60.652;2023-04-15T14:32:29;18.37;71.59
63899;HTU21D;50070;-32.946;-60.652;2023-04-15T14:34:56;18.43;70.94
63899;HTU21D;50070;-32.946;-60.652;2023-04-15T14:37:23;18.29;71.61
63899;HTU21D;50070;-32.946;-60.652;2023-04-15T14:39:50;18.57;70.29
63899;HTU21D;50070;-32.946;-60.652;2023-04-15T14:42:16;18.53;70.18
63899;HTU21D;50070;-32.946;-60.652;2023-04-15T14:44:43;18.66;69.41
63899;HTU21D;50070;-32.946;-60.652;2023-04-15T14:47:10;18.85;68.83
63899;HTU21D;50070;-32.946;-60.652;2023-04-15T14:49:37;18.87;68.55
63899;HTU21D;50070;-32.946;-60.652;2023-04-15T14:52:04;19.16;67.96
63899;HTU21D;50070;-32.946;-60.652;2023-04-15T14:54:31;19.07;68.46
63899;HTU21D;50070;-32.946;-60.652;2023-04-15T14:56:58;19.06;68.99
63899;HTU21D;50070;-32.946;-60.652;2023-04-15T14:59:24;19.01;69.32
63899;HTU21D;50070;-32.946;-60.652;2023-04-15T15:01:54;19.22;67.94
63899;HTU21D;50070;-32.946;-60.652;2023-04-15T15:04:21;19.11;67.78
63899;HTU21D;50070;-32.946;-60.652;2023-04-15T15:06:48;19.03;68.14